Time;durP1;ratioP1;P1;durP2;ratioP2;P2;SDS_P1;SDS_P2;PMS_P1;PMS_P2;Temp;Humidity;BMP_temperature;BMP_pressure;BME280_temperature;BME280_humidity;BME280_pressure;Samples;Min_cycle;Max_cycle;Signal;HPM_P1;HPM_P2
2023/09/12 00:02:03;;;;;;;27.45;24.00;;;20.00;99.90;;;;;;4997759;28;20042;-81
2023/09/12 00:04:29;;;;;;;26.80;23.38;;;20.00;99.90;;;;;;4980703;28;20137;-82
2023/09/12 00:06:54;;;;;;;29.35;24.38;;;20.00;99.90;;;;;;5015046;28;20116;-82
2023/09/12 00:09:20;;;;;;;24.77;21.13;;;20.00;99.90;;;;;;4996996;28;20042;-83
2023/09/12 00:11:45;;;;;;;27.85;22.88;;;20.00;99.90;;;;;;4997574;28;20042;-83
2023/09/12 00:14:15;;;;;;;28.48;23.10;;;20.00;99.90;;;;;;4980524;28;20034;-83
2023/09/12 00:16:41;;;;;;;26.08;21.95;;;20.00;99.90;;;;;;4981628;28;20037;-81
2023/09/12 00:19:07;;;;;;;28.95;25.02;;;20.00;99.90;;;;;;5015022;28;20041;-81
2023/09/12 00:21:32;;;;;;;26.77;22.38;;;19.90;99.90;;;;;;5014594;28;20049;-81
2023/09/12 00:23:58;;;;;;;31.48;24.05;;;19.90;99.90;;;;;;4996476;28;20045;-81
2023/09/12 00:26:23;;;;;;;24.70;21.48;;;19.90;99.90;;;;;;5014164;28;20056;-82
2023/09/12 00:28:49;;;;;;;25.95;21.77;;;19.90;99.90;;;;;;5013489;28;20100;-83
2023/09/12 00:31:14;;;;;;;25.85;22.08;;;19.90;99.90;;;;;;5014154;28;20041;-83
2023/09/12 00:33:40;;;;;;;25.23;21.55;;;19.90;99.90;;;;;;4995917;28;20129;-83
2023/09/12 00:36:05;;;;;;;24.70;21.58;;;19.90;99.90;;;;;;5015070;28;20042;-83
2023/09/12 00:38:31;;;;;;;28.00;24.05;;;19.90;99.90;;;;;;4995689;28;20038;-84
2023/09/12 00:40:57;;;;;;;24.65;21.95;;;19.90;99.90;;;;;;4996384;28;20042;-82
2023/09/12 00:43:23;;;;;;;26.30;22.55;;;20.00;99.90;;;;;;4996252;28;20042;-80
2023/09/12 00:45:48;;;;;;;29.63;24.23;;;20.00;99.90;;;;;;4996948;28;20077;-81
2023/09/12 00:48:16;;;;;;;27.02;22.77;;;20.00;99.90;;;;;;4996463;28;20564;-81
2023/09/12 00:50:43;;;;;;;27.95;23.30;;;20.00;99.90;;;;;;4997078;28;20402;-82
2023/09/12 00:53:09;;;;;;;29.02;23.45;;;20.00;99.90;;;;;;4996381;28;20044;-82
2023/09/12 00:55:36;;;;;;;28.50;25.38;;;20.10;99.90;;;;;;5013484;28;20116;-82
2023/09/12 00:58:02;;;;;;;27.70;23.48;;;20.10;99.90;;;;;;4996254;28;20088;-82
2023/09/12 01:00:28;;;;;;;28.17;24.48;;;20.00;99.90;;;;;;4996616;28;20073;-82
2023/09/12 01:02:54;;;;;;;29.70;25.52;;;20.00;99.90;;;;;;5014324;28;20069;-81
2023/09/12 01:05:21;;;;;;;29.38;23.63;;;19.90;99.90;;;;;;5012429;28;20034;-81
2023/09/12 01:07:47;;;;;;;27.55;23.83;;;19.90;99.90;;;;;;5012970;28;20035;-80
2023/09/12 01:10:13;;;;;;;26.15;22.45;;;19.90;99.90;;;;;;5014189;28;20133;-80
2023/09/12 01:12:38;;;;;;;30.45;25.15;;;19.90;99.90;;;;;;5014143;28;20483;-81
2023/09/12 01:15:08;;;;;;;30.27;24.02;;;19.80;99.90;;;;;;4979458;28;20044;-83
2023/09/12 01:17:34;;;;;;;28.08;25.08;;;19.70;99.90;;;;;;4994449;28;20041;-83
2023/09/12 01:20:01;;;;;;;29.52;23.92;;;19.80;99.90;;;;;;4988448;28;20410;-82
2023/09/12 01:22:46;;;;;;;28.52;23.42;;;19.70;99.90;;;;;;5006453;28;20047;-81
2023/09/12 01:25:25;;;;;;;25.05;22.45;;;19.70;99.90;;;;;;4995436;28;20450;-81
2023/09/12 01:27:51;;;;;;;28.88;23.92;;;19.70;99.90;;;;;;5005807;28;20052;-82
2023/09/12 01:30:20;;;;;;;27.60;24.52;;;19.70;99.90;;;;;;5001185;28;20042;-82
2023/09/12 01:32:46;;;;;;;29.75;24.65;;;19.80;99.90;;;;;;4993110;28;20507;-81
2023/09/12 01:35:12;;;;;;;27.90;23.95;;;19.80;99.90;;;;;;4993917;28;20050;-81
2023/09/12 01:37:38;;;;;;;29.60;24.98;;;19.80;99.90;;;;;;5005060;28;20042;-81
2023/09/12 01:40:04;;;;;;;25.67;22.98;;;19.80;99.90;;;;;;4992259;28;20038;-83
2023/09/12 01:42:44;;;;;;;29.13;24.55;;;19.80;99.90;;;;;;4987309;28;20144;-83
2023/09/12 01:45:16;;;;;;;25.75;22.75;;;19.70;99.90;;;;;;5015499;28;20558;-83
2023/09/12 01:47:42;;;;;;;24.67;21.95;;;19.70;99.90;;;;;;4996972;28;20402;-84
2023/09/12 01:50:12;;;;;;;26.60;23.63;;;19.60;99.90;;;;;;5011565;28;20443;-83
2023/09/12 01:52:38;;;;;;;24.13;21.55;;;19.60;99.90;;;;;;5012868;28;20487;-81
2023/09/12 01:55:06;;;;;;;25.05;22.40;;;19.70;99.90;;;;;;4995142;28;20041;-81
2023/09/12 01:57:32;;;;;;;25.77;22.35;;;19.60;99.90;;;;;;4993947;28;20041;-82
2023/09/12 01:59:58;;;;;;;24.85;22.25;;;19.60;99.90;;;;;;4995894;28;20038;-83
2023/09/12 02:02:23;;;;;;;28.45;24.40;;;19.60;99.90;;;;;;5013508;28;20100;-82
2023/09/12 02:05:13;;;;;;;28.67;24.95;;;19.60;99.90;;;;;;4995820;28;20041;-82
2023/09/12 02:07:41;;;;;;;28.20;24.63;;;19.70;99.90;;;;;;5009498;28;20041;-83
2023/09/12 02:10:07;;;;;;;30.83;25.35;;;19.70;99.90;;;;;;4979471;28;20044;-84
2023/09/12 02:12:32;;;;;;;28.40;24.50;;;19.70;99.90;;;;;;4995574;28;20216;-84
2023/09/12 02:14:58;;;;;;;28.88;24.30;;;19.70;99.90;;;;;;5013347;28;20464;-83
2023/09/12 02:17:24;;;;;;;31.67;26.05;;;19.70;99.90;;;;;;4993635;28;20034;-83
2023/09/12 02:19:49;;;;;;;28.08;24.35;;;19.60;99.90;;;;;;4978154;28;20478;-84
2023/09/12 02:22:15;;;;;;;29.67;26.08;;;19.70;99.90;;;;;;5013171;28;20041;-84
2023/09/12 02:24:41;;;;;;;28.08;25.08;;;19.60;99.90;;;;;;4995910;28;20046;-83
2023/09/12 02:27:06;;;;;;;31.20;25.85;;;19.60;99.90;;;;;;4994378;28;20073;-82
2023/09/12 02:29:32;;;;;;;30.98;25.30;;;19.70;99.90;;;;;;4993889;28;20072;-83
2023/09/12 02:31:58;;;;;;;29.35;24.83;;;19.60;99.90;;;;;;4978329;28;20042;-83
2023/09/12 02:34:24;;;;;;;27.45;24.25;;;19.60;99.90;;;;;;5012877;28;20126;-84
2023/09/12 02:36:49;;;;;;;30.58;26.65;;;19.60;99.90;;;;;;5012532;28;20427;-83
2023/09/12 02:39:15;;;;;;;29.33;25.27;;;19.60;99.90;;;;;;5012121;28;20520;-83
2023/09/12 02:41:41;;;;;;;29.33;24.98;;;19.60;99.90;;;;;;4994510;28;20171;-81
2023/09/12 02:44:06;;;;;;;28.25;24.13;;;19.50;99.90;;;;;;5013178;28;20490;-83
2023/09/12 02:46:32;;;;;;;29.10;25.85;;;19.60;99.90;;;;;;5013016;28;20499;-83
2023/09/12 02:48:58;;;;;;;29.02;24.20;;;19.60;99.90;;;;;;4994227;28;20053;-81
2023/09/12 02:51:25;;;;;;;29.40;26.30;;;19.60;99.90;;;;;;5013102;28;20038;-82
2023/09/12 02:53:51;;;;;;;29.58;25.63;;;19.60;99.90;;;;;;5012300;28;20049;-82
2023/09/12 02:56:16;;;;;;;29.02;25.48;;;19.60;99.90;;;;;;4979248;28;20034;-83
2023/09/12 02:58:45;;;;;;;30.15;25.58;;;19.60;99.90;;;;;;5009989;28;20050;-83
2023/09/12 03:01:15;;;;;;;28.55;24.83;;;19.60;99.90;;;;;;5014016;28;20042;-82
2023/09/12 03:03:41;;;;;;;27.95;25.05;;;19.60;99.90;;;;;;4998897;28;20073;-82
2023/09/12 03:06:07;;;;;;;30.00;24.80;;;19.60;99.90;;;;;;4998102;28;20097;-82
2023/09/12 03:08:32;;;;;;;29.20;24.20;;;19.50;99.90;;;;;;4997382;28;20128;-81
2023/09/12 03:10:58;;;;;;;28.17;24.73;;;19.60;99.90;;;;;;5016517;28;20104;-81
2023/09/12 03:13:28;;;;;;;29.92;26.80;;;19.60;99.90;;;;;;4998989;28;20161;-81
2023/09/12 03:15:53;;;;;;;29.95;25.42;;;19.70;99.90;;;;;;4998396;28;20410;-81
2023/09/12 03:18:19;;;;;;;29.27;25.33;;;19.50;99.90;;;;;;4987379;28;20042;-80
2023/09/12 03:20:45;;;;;;;30.50;25.67;;;19.50;99.90;;;;;;5015211;28;20042;-80
2023/09/12 03:23:11;;;;;;;29.77;25.38;;;19.50;99.90;;;;;;5016331;28;20072;-80
2023/09/12 03:25:37;;;;;;;32.28;26.95;;;19.60;99.90;;;;;;5016167;28;20094;-80
2023/09/12 03:28:05;;;;;;;31.25;26.90;;;19.50;99.90;;;;;;4998015;28;20042;-80
2023/09/12 03:30:34;;;;;;;30.63;26.67;;;19.50;99.90;;;;;;5014785;28;20096;-82
2023/09/12 03:33:00;;;;;;;29.95;25.48;;;19.50;99.90;;;;;;5015992;28;20053;-81
2023/09/12 03:35:26;;;;;;;28.98;25.80;;;19.50;99.90;;;;;;5016074;28;20479;-80
2023/09/12 03:37:51;;;;;;;30.23;27.02;;;19.50;99.90;;;;;;5014511;28;20446;-81
2023/09/12 03:40:17;;;;;;;25.88;23.08;;;19.50;99.90;;;;;;4996800;28;20084;-80
2023/09/12 03:42:42;;;;;;;24.70;22.20;;;19.40;99.90;;;;;;5015841;28;20533;-81
2023/09/12 03:45:08;;;;;;;23.88;21.38;;;19.40;99.90;;;;;;5015737;28;20037;-80
2023/09/12 03:47:34;;;;;;;23.80;21.27;;;19.40;99.90;;;;;;4981268;28;20049;-81
2023/09/12 03:50:00;;;;;;;24.70;20.88;;;19.40;99.90;;;;;;5014282;28;20030;-81
2023/09/12 03:52:25;;;;;;;23.50;20.95;;;19.40;99.90;;;;;;5015618;28;20453;-81
2023/09/12 03:54:51;;;;;;;23.15;20.10;;;19.40;99.90;;;;;;4997258;28;20410;-80
2023/09/12 03:57:16;;;;;;;23.95;21.27;;;19.40;99.90;;;;;;4997984;28;20410;-80
2023/09/12 03:59:42;;;;;;;23.25;20.75;;;19.30;99.90;;;;;;4997143;28;20478;-81
2023/09/12 04:02:08;;;;;;;24.33;20.88;;;19.30;99.90;;;;;;4995550;28;20045;-81
2023/09/12 04:04:34;;;;;;;23.52;21.02;;;19.20;99.90;;;;;;4997880;28;20538;-81
2023/09/12 04:06:59;;;;;;;23.90;21.33;;;19.20;99.90;;;;;;4996580;28;20121;-81
2023/09/12 04:09:25;;;;;;;23.42;20.90;;;19.20;99.90;;;;;;4995870;28;20048;-81
2023/09/12 04:11:50;;;;;;;20.70;18.60;;;19.20;99.90;;;;;;4983129;28;20077;-81
2023/09/12 04:14:16;;;;;;;19.70;17.60;;;19.10;99.90;;;;;;5014450;28;20440;-81
2023/09/12 04:16:41;;;;;;;20.00;18.00;;;19.10;99.90;;;;;;5013782;28;20033;-81
2023/09/12 04:19:07;;;;;;;19.35;17.45;;;19.00;99.90;;;;;;4996889;28;20112;-81
2023/09/12 04:21:33;;;;;;;18.42;16.63;;;19.00;99.90;;;;;;4980137;28;20041;-81
2023/09/12 04:23:58;;;;;;;18.88;16.98;;;18.90;99.90;;;;;;5013862;28;20125;-80
2023/09/12 04:26:24;;;;;;;19.05;17.13;;;18.90;99.90;;;;;;5012389;28;20038;-81
2023/09/12 04:28:50;;;;;;;19.75;17.58;;;18.90;99.90;;;;;;4980296;28;20042;-81
2023/09/12 04:31:15;;;;;;;15.65;14.05;;;18.90;99.90;;;;;;4995347;28;20045;-80
2023/09/12 04:33:41;;;;;;;16.58;14.88;;;18.90;99.90;;;;;;5014598;28;20077;-80
2023/09/12 04:36:06;;;;;;;15.18;13.60;;;18.90;99.90;;;;;;4997502;28;20048;-80
2023/09/12 04:38:33;;;;;;;14.40;12.20;;;18.80;99.90;;;;;;4996681;28;20047;-81
2023/09/12 04:41:04;;;;;;;13.20;11.90;;;18.80;99.90;;;;;;4980277;28;20045;-81
2023/09/12 04:43:33;;;;;;;15.13;13.57;;;18.70;99.90;;;;;;4996210;28;20042;-81
2023/09/12 04:45:58;;;;;;;15.70;14.10;;;18.60;99.90;;;;;;5014521;28;20041;-81
2023/09/12 04:48:24;;;;;;;19.67;16.95;;;18.60;99.90;;;;;;5012784;28;20045;-80
2023/09/12 04:50:50;;;;;;;21.02;18.73;;;18.60;99.90;;;;;;4996049;28;20509;-80
2023/09/12 04:53:16;;;;;;;20.55;18.35;;;18.60;99.90;;;;;;4978578;28;20040;-81
2023/09/12 04:55:41;;;;;;;21.58;19.27;;;18.60;99.90;;;;;;5013193;28;20038;-81
2023/09/12 04:58:07;;;;;;;22.15;19.80;;;18.60;99.90;;;;;;4996677;28;20099;-80
2023/09/12 05:00:33;;;;;;;24.35;21.15;;;18.60;99.90;;;;;;4979976;28;20034;-80
2023/09/12 05:02:59;;;;;;;24.90;21.75;;;18.70;99.90;;;;;;5013767;28;20456;-81
2023/09/12 05:05:25;;;;;;;23.63;21.00;;;18.70;99.90;;;;;;4996874;28;20069;-81
2023/09/12 05:07:53;;;;;;;25.02;21.73;;;18.70;99.90;;;;;;4996323;28;20073;-81
2023/09/12 05:10:19;;;;;;;24.25;21.65;;;18.70;99.90;;;;;;4996201;28;20070;-81
2023/09/12 05:12:45;;;;;;;24.77;21.88;;;18.70;99.90;;;;;;5012972;28;20070;-81
2023/09/12 05:15:10;;;;;;;23.35;20.90;;;18.70;99.90;;;;;;5014280;28;20034;-81
2023/09/12 05:17:36;;;;;;;25.50;22.80;;;18.70;99.90;;;;;;5013501;28;20038;-81
2023/09/12 05:20:04;;;;;;;25.33;22.58;;;18.60;99.90;;;;;;4995932;28;20122;-81
2023/09/12 05:22:30;;;;;;;23.88;21.40;;;18.60;99.90;;;;;;5014030;28;20034;-81
2023/09/12 05:24:56;;;;;;;25.33;22.63;;;18.60;99.90;;;;;;4994414;28;20042;-81
2023/09/12 05:27:21;;;;;;;26.02;22.77;;;18.60;99.90;;;;;;4996300;28;20129;-81
2023/09/12 05:29:47;;;;;;;26.50;22.98;;;18.60;99.90;;;;;;4996238;28;20128;-81
2023/09/12 05:32:13;;;;;;;24.52;21.92;;;18.70;99.90;;;;;;4979014;28;20426;-81
2023/09/12 05:34:38;;;;;;;25.10;22.40;;;18.70;99.90;;;;;;4995210;28;20129;-81
2023/09/12 05:37:04;;;;;;;25.40;22.67;;;18.60;99.90;;;;;;4996250;28;20483;-81
2023/09/12 05:39:29;;;;;;;25.88;22.70;;;18.70;99.90;;;;;;4996404;28;20132;-81
2023/09/12 05:41:55;;;;;;;26.88;23.88;;;18.70;99.90;;;;;;4995629;28;20042;-81
2023/09/12 05:44:20;;;;;;;25.77;23.00;;;18.70;99.90;;;;;;4978908;28;20454;-81
2023/09/12 05:46:47;;;;;;;25.77;22.83;;;18.60;99.90;;;;;;4995632;28;20038;-81
2023/09/12 05:49:14;;;;;;;24.90;22.10;;;18.60;99.90;;;;;;4979741;28;20510;-81
2023/09/12 05:51:40;;;;;;;28.55;25.20;;;18.60;99.90;;;;;;4983912;28;20042;-82
2023/09/12 05:54:05;;;;;;;28.75;24.77;;;18.60;99.90;;;;;;4988635;28;20077;-81
2023/09/12 05:56:31;;;;;;;30.10;25.27;;;18.60;99.90;;;;;;4978568;28;20513;-81
2023/09/12 05:58:57;;;;;;;29.20;25.55;;;18.60;99.90;;;;;;5015631;28;20397;-81
2023/09/12 06:01:22;;;;;;;29.67;25.13;;;18.60;99.90;;;;;;4995376;28;20446;-81
2023/09/12 06:03:48;;;;;;;29.98;25.90;;;18.60;99.90;;;;;;5013574;28;20053;-81
2023/09/12 06:06:14;;;;;;;30.20;25.50;;;18.70;99.90;;;;;;4978719;28;20053;-81
2023/09/12 06:08:40;;;;;;;31.80;25.80;;;18.60;99.90;;;;;;4998319;28;20053;-81
2023/09/12 06:11:05;;;;;;;29.88;25.25;;;18.70;99.90;;;;;;5020486;28;20405;-82
2023/09/12 06:13:32;;;;;;;32.38;26.63;;;18.70;99.90;;;;;;4993066;28;20034;-82
2023/09/12 06:15:58;;;;;;;31.70;27.00;;;18.70;99.90;;;;;;4993883;28;20139;-81
2023/09/12 06:18:24;;;;;;;31.48;25.85;;;18.70;99.90;;;;;;4992445;28;20411;-82
2023/09/12 06:20:50;;;;;;;32.03;26.98;;;18.70;99.90;;;;;;4979192;28;20042;-81
2023/09/12 06:23:15;;;;;;;31.83;25.00;;;18.80;99.90;;;;;;4975143;28;20040;-82
2023/09/12 06:25:41;;;;;;;33.40;26.95;;;18.80;99.90;;;;;;5009981;28;20033;-81
2023/09/12 06:28:09;;;;;;;33.30;26.23;;;18.80;99.90;;;;;;4986662;28;20049;-83
2023/09/12 06:30:35;;;;;;;30.90;26.67;;;18.80;99.90;;;;;;5004185;28;20038;-82
2023/09/12 06:33:00;;;;;;;30.10;25.50;;;18.80;99.90;;;;;;5008769;28;20471;-77
2023/09/12 06:35:26;;;;;;;33.60;26.55;;;18.90;99.90;;;;;;5009954;28;20042;-85
2023/09/12 06:37:51;;;;;;;29.25;23.80;;;18.80;99.90;;;;;;4983352;28;20125;-82
2023/09/12 06:40:17;;;;;;;28.60;24.67;;;18.90;99.90;;;;;;4996923;28;20121;-82
2023/09/12 06:42:43;;;;;;;32.08;26.25;;;18.90;99.90;;;;;;5016785;28;20042;-82
2023/09/12 06:45:09;;;;;;;29.48;24.83;;;18.90;99.90;;;;;;4997275;28;20044;-82
2023/09/12 06:47:34;;;;;;;31.10;25.77;;;18.80;99.90;;;;;;4996532;28;20490;-82
2023/09/12 06:50:00;;;;;;;30.13;25.58;;;18.80;99.90;;;;;;4988549;28;20046;-82
2023/09/12 06:52:26;;;;;;;29.02;25.15;;;18.80;99.90;;;;;;5017491;28;20125;-82
2023/09/12 06:54:51;;;;;;;29.67;24.98;;;18.80;99.90;;;;;;4997850;28;20818;-82
2023/09/12 06:57:17;;;;;;;31.52;26.67;;;18.80;99.90;;;;;;5015600;28;20092;-82
2023/09/12 06:59:42;;;;;;;31.45;27.00;;;18.80;99.90;;;;;;4995102;28;20103;-82
2023/09/12 07:02:09;;;;;;;30.95;26.50;;;18.80;99.90;;;;;;4994531;28;20132;-82
2023/09/12 07:04:35;;;;;;;31.98;25.98;;;18.80;99.90;;;;;;5013307;28;20046;-82
2023/09/12 07:07:01;;;;;;;30.60;26.58;;;18.90;99.90;;;;;;5014124;28;20038;-82
2023/09/12 07:09:26;;;;;;;30.15;25.48;;;18.90;99.90;;;;;;4999608;28;20394;-82
2023/09/12 07:11:52;;;;;;;33.30;25.05;;;18.90;99.90;;;;;;5011844;28;20125;-82
2023/09/12 07:14:18;;;;;;;35.10;26.90;;;18.90;99.90;;;;;;4997788;28;20045;-83
2023/09/12 07:16:43;;;;;;;33.95;26.10;;;18.90;99.90;;;;;;4995076;28;20034;-82
2023/09/12 07:19:10;;;;;;;31.50;25.90;;;18.90;99.90;;;;;;4991233;28;20411;-82
2023/09/12 07:21:35;;;;;;;31.95;24.10;;;19.00;99.90;;;;;;4996036;28;20037;-83
2023/09/12 07:24:01;;;;;;;28.63;23.75;;;19.20;99.90;;;;;;5011372;28;20164;-82
2023/09/12 07:26:26;;;;;;;31.20;25.80;;;19.20;99.90;;;;;;4986445;28;20034;-82
2023/09/12 07:28:52;;;;;;;29.73;24.98;;;19.20;99.90;;;;;;4997687;28;20049;-82
2023/09/12 07:31:18;;;;;;;31.33;26.60;;;19.10;99.90;;;;;;4995226;28;20498;-82
2023/09/12 07:33:43;;;;;;;32.90;28.10;;;19.00;99.90;;;;;;4979144;28;20149;-83
2023/09/12 07:36:09;;;;;;;31.45;25.60;;;19.10;99.90;;;;;;5012756;28;20092;-82
2023/09/12 07:38:37;;;;;;;34.17;27.58;;;19.00;99.90;;;;;;4987889;28;20045;-82
2023/09/12 07:41:03;;;;;;;34.83;27.50;;;19.00;99.90;;;;;;5015689;28;20433;-83
2023/09/12 07:43:28;;;;;;;32.38;26.35;;;19.00;99.90;;;;;;4996139;28;20049;-82
2023/09/12 07:45:58;;;;;;;29.70;23.65;;;19.00;99.90;;;;;;4994038;28;20096;-83
2023/09/12 07:48:23;;;;;;;31.73;26.20;;;19.10;99.90;;;;;;4990419;28;20053;-83
2023/09/12 07:50:49;;;;;;;34.40;28.02;;;19.20;99.90;;;;;;4979873;28;20486;-83
2023/09/12 07:53:15;;;;;;;34.80;27.77;;;19.20;99.90;;;;;;5003853;28;20076;-82
2023/09/12 07:55:46;;;;;;;31.52;25.58;;;19.20;99.90;;;;;;4997190;28;20413;-76
2023/09/12 07:58:16;;;;;;;29.20;22.70;;;19.20;99.90;;;;;;5010988;28;20101;-79
2023/09/12 08:00:41;;;;;;;30.90;24.90;;;19.30;99.90;;;;;;4975348;28;20486;-79
2023/09/12 08:03:07;;;;;;;35.05;27.15;;;19.30;99.90;;;;;;4995021;28;20046;-79
2023/09/12 08:05:33;;;;;;;33.10;27.25;;;19.40;99.90;;;;;;5005643;28;20065;-82
2023/09/12 08:07:58;;;;;;;34.40;27.02;;;19.40;99.90;;;;;;5011270;28;20042;-81
2023/09/12 08:10:24;;;;;;;37.90;28.77;;;19.50;99.90;;;;;;4993407;28;20041;-82
2023/09/12 08:12:50;;;;;;;39.63;30.48;;;19.60;99.90;;;;;;4978350;28;20041;-82
2023/09/12 08:15:15;;;;;;;39.53;29.15;;;19.50;99.90;;;;;;4987199;28;20070;-81
2023/09/12 08:17:41;;;;;;;39.40;30.77;;;19.50;99.90;;;;;;4995289;28;20553;-81
2023/09/12 08:20:09;;;;;;;42.83;31.70;;;19.50;99.90;;;;;;4976599;28;20045;-81
2023/09/12 08:22:36;;;;;;;42.90;32.83;;;19.50;99.90;;;;;;4982845;28;20052;-81
2023/09/12 08:25:02;;;;;;;43.97;31.95;;;19.40;99.90;;;;;;4975071;28;20038;-90
2023/09/12 08:27:27;;;;;;;45.45;33.90;;;19.50;99.90;;;;;;4995932;28;20068;-91
2023/09/12 08:29:53;;;;;;;42.83;33.35;;;19.40;99.90;;;;;;4980574;28;20087;-90
2023/09/12 08:32:18;;;;;;;44.17;33.33;;;19.50;99.90;;;;;;4983375;28;20042;-90
2023/09/12 08:34:44;;;;;;;47.65;33.05;;;19.50;99.90;;;;;;5006027;28;20050;-90
2023/09/12 08:37:09;;;;;;;47.35;33.03;;;19.50;99.90;;;;;;4996170;28;20038;-90
2023/09/12 08:39:44;;;;;;;45.13;33.63;;;19.50;99.90;;;;;;4993647;28;20034;-90
2023/09/12 08:42:13;;;;;;;43.85;33.33;;;19.50;99.90;;;;;;4972072;28;20509;-89
2023/09/12 08:44:40;;;;;;;45.83;33.67;;;19.50;99.90;;;;;;4977689;28;20114;-90
2023/09/12 08:47:09;;;;;;;43.72;33.85;;;19.50;99.90;;;;;;5014396;28;20046;-90
2023/09/12 08:49:36;;;;;;;49.00;34.63;;;19.50;99.90;;;;;;5001807;28;20045;-90
2023/09/12 08:52:02;;;;;;;46.05;34.83;;;19.50;99.90;;;;;;5001306;28;20580;-90
2023/09/12 08:54:28;;;;;;;50.92;35.53;;;19.60;99.90;;;;;;4981529;28;20038;-90
2023/09/12 08:56:54;;;;;;;45.22;33.05;;;19.60;99.90;;;;;;4981926;28;20401;-90
2023/09/12 08:59:20;;;;;;;48.40;35.78;;;19.60;99.90;;;;;;4977602;28;20080;-89
2023/09/12 09:01:46;;;;;;;48.42;33.50;;;19.60;99.90;;;;;;4973303;28;20038;-89
2023/09/12 09:04:12;;;;;;;47.65;35.97;;;19.70;99.90;;;;;;4992147;28;20506;-90
2023/09/12 09:06:41;;;;;;;48.97;34.95;;;19.70;99.90;;;;;;4996728;28;20076;-90
2023/09/12 09:09:08;;;;;;;51.72;37.22;;;19.70;99.90;;;;;;4979837;28;20042;-90
2023/09/12 09:11:34;;;;;;;49.35;34.97;;;19.80;99.90;;;;;;4993323;28;20437;-90
2023/09/12 09:14:04;;;;;;;49.75;35.97;;;19.90;99.90;;;;;;4993094;28;20125;-89
2023/09/12 09:16:30;;;;;;;47.05;34.17;;;19.80;99.90;;;;;;4995619;28;20039;-90
2023/09/12 09:19:01;;;;;;;43.70;33.58;;;19.90;99.90;;;;;;4980363;28;20038;-89
2023/09/12 09:21:31;;;;;;;42.72;32.40;;;19.90;99.90;;;;;;4996783;28;20037;-90
2023/09/12 09:24:00;;;;;;;46.15;33.30;;;19.90;99.90;;;;;;4984969;28;20045;-89
2023/09/12 09:26:39;;;;;;;44.78;33.28;;;19.90;99.90;;;;;;5002981;28;20037;-89
2023/09/12 09:29:08;;;;;;;47.53;32.83;;;20.00;99.90;;;;;;4994856;28;20177;-89
2023/09/12 09:31:34;;;;;;;45.38;33.65;;;20.00;99.90;;;;;;4978120;28;20057;-89
2023/09/12 09:34:01;;;;;;;48.35;33.53;;;20.10;99.90;;;;;;5010042;28;20057;-88
2023/09/12 09:36:28;;;;;;;42.13;30.73;;;20.10;99.90;;;;;;5012263;28;20494;-88
2023/09/12 09:38:56;;;;;;;43.53;32.30;;;20.10;99.90;;;;;;5013035;28;20060;-88
2023/09/12 09:41:22;;;;;;;46.30;33.13;;;20.10;99.90;;;;;;5020407;28;20054;-87
2023/09/12 09:43:51;;;;;;;42.50;32.88;;;20.10;99.90;;;;;;4989199;28;20118;-88
2023/09/12 09:46:18;;;;;;;46.63;34.60;;;20.20;99.90;;;;;;5012189;28;20037;-87
2023/09/12 09:48:51;;;;;;;49.30;35.22;;;20.20;99.90;;;;;;4978282;28;20064;-88
2023/09/12 09:51:18;;;;;;;46.97;33.58;;;20.30;99.90;;;;;;5009379;28;20038;-88
2023/09/12 09:53:43;;;;;;;42.25;31.33;;;20.40;99.90;;;;;;4993767;28;20040;-87
2023/09/12 09:56:11;;;;;;;45.20;33.53;;;20.40;99.90;;;;;;5012531;28;20038;-87
2023/09/12 09:58:47;;;;;;;42.00;31.55;;;20.50;99.90;;;;;;4980404;28;20360;-83
2023/09/12 10:01:18;;;;;;;42.92;31.83;;;20.50;99.90;;;;;;4994566;28;20100;-85
2023/09/12 10:03:47;;;;;;;43.72;32.00;;;20.70;99.90;;;;;;4997931;28;20091;-82
2023/09/12 10:06:14;;;;;;;45.05;32.20;;;20.70;99.90;;;;;;4995470;28;20041;-83
2023/09/12 10:08:42;;;;;;;41.08;31.23;;;20.70;99.90;;;;;;5013263;28;20038;-83
2023/09/12 10:11:08;;;;;;;42.00;31.40;;;20.80;99.90;;;;;;4994331;28;20050;-82
2023/09/12 10:13:36;;;;;;;40.58;31.80;;;20.70;99.90;;;;;;4994780;28;20394;-81
2023/09/12 10:16:04;;;;;;;41.25;31.08;;;20.70;99.90;;;;;;5011086;28;20513;-84
2023/09/12 10:18:39;;;;;;;39.67;29.92;;;20.70;99.90;;;;;;4996633;28;20445;-83
2023/09/12 10:21:15;;;;;;;41.65;29.70;;;20.70;99.90;;;;;;4996280;28;20049;-84
2023/09/12 10:23:44;;;;;;;38.85;29.55;;;20.70;99.90;;;;;;4995461;28;20052;-84
2023/09/12 10:26:14;;;;;;;42.10;32.88;;;20.80;99.90;;;;;;4995665;28;20055;-83
2023/09/12 10:28:41;;;;;;;42.67;32.40;;;20.90;99.90;;;;;;4995733;28;20038;-83
2023/09/12 10:31:08;;;;;;;39.72;28.40;;;20.90;99.90;;;;;;4995528;28;20038;-83
2023/09/12 10:33:35;;;;;;;43.47;32.53;;;20.90;99.90;;;;;;4995168;28;20124;-83
2023/09/12 10:36:03;;;;;;;42.83;30.83;;;20.90;99.90;;;;;;5011872;28;20104;-83
2023/09/12 10:38:32;;;;;;;43.20;31.85;;;20.90;99.90;;;;;;4979354;28;20482;-84
2023/09/12 10:41:00;;;;;;;42.53;31.30;;;20.90;99.90;;;;;;5011822;28;20046;-84
2023/09/12 10:43:28;;;;;;;46.17;31.63;;;21.00;99.90;;;;;;5012910;28;20557;-84
2023/09/12 10:45:53;;;;;;;42.45;30.67;;;21.00;99.90;;;;;;5012889;28;20553;-84
2023/09/12 10:48:19;;;;;;;40.22;31.27;;;21.00;99.90;;;;;;5013287;28;20073;-83
2023/09/12 10:50:46;;;;;;;39.47;30.13;;;21.10;99.90;;;;;;4979079;28;20474;-83
2023/09/12 10:53:12;;;;;;;43.17;31.23;;;21.10;99.90;;;;;;4995581;28;20402;-83
2023/09/12 10:55:38;;;;;;;38.22;30.38;;;21.20;99.90;;;;;;5012876;28;20482;-84
2023/09/12 10:58:07;;;;;;;39.70;30.17;;;21.20;99.90;;;;;;4995604;28;20038;-83
2023/09/12 11:00:34;;;;;;;36.92;28.05;;;21.30;99.90;;;;;;5012801;28;20053;-83
2023/09/12 11:03:20;;;;;;;34.55;27.13;;;21.30;99.90;;;;;;4995254;28;20033;-83
2023/09/12 11:05:54;;;;;;;34.35;26.90;;;21.40;99.90;;;;;;5012755;28;20042;-83
2023/09/12 11:08:20;;;;;;;33.42;26.85;;;21.40;99.90;;;;;;5012768;28;20077;-83
2023/09/12 11:11:19;;;;;;;31.63;25.35;;;21.50;99.90;;;;;;5011590;28;20073;-83
2023/09/12 11:13:45;;;;;;;33.22;27.17;;;21.60;99.90;;;;;;4978907;28;20037;-84
2023/09/12 11:16:17;;;;;;;34.60;26.27;;;21.60;99.90;;;;;;4995247;28;20454;-83
2023/09/12 11:19:18;;;;;;;34.00;26.30;;;21.50;99.90;;;;;;5012900;28;20042;-84
2023/09/12 11:21:55;;;;;;;36.58;27.98;;;21.50;99.90;;;;;;5013198;28;20038;-83
2023/09/12 11:24:21;;;;;;;31.75;25.88;;;21.50;99.90;;;;;;4998524;28;20057;-83
2023/09/12 11:27:01;;;;;;;37.78;28.45;;;21.60;99.90;;;;;;5016263;28;20037;-84
2023/09/12 11:29:46;;;;;;;36.10;28.17;;;21.50;99.90;;;;;;5016028;28;20573;-84
2023/09/12 11:32:26;;;;;;;35.83;28.35;;;21.60;99.90;;;;;;5014835;28;20057;-84
2023/09/12 11:34:52;;;;;;;34.58;27.98;;;21.70;99.90;;;;;;4998640;28;20415;-84
2023/09/12 11:37:28;;;;;;;36.92;27.42;;;21.70;99.90;;;;;;4998692;28;20046;-83
2023/09/12 11:39:54;;;;;;;36.97;28.15;;;21.80;99.90;;;;;;4982162;28;20137;-84
2023/09/12 11:42:22;;;;;;;33.13;26.77;;;21.80;99.90;;;;;;4998503;28;20399;-84
2023/09/12 11:44:50;;;;;;;37.22;27.92;;;21.80;99.90;;;;;;4998461;28;20064;-84
2023/09/12 11:47:16;;;;;;;31.17;25.05;;;21.80;99.90;;;;;;4998152;28;20042;-84
2023/09/12 11:49:42;;;;;;;34.30;26.92;;;21.80;99.90;;;;;;4998169;28;20517;-84
2023/09/12 11:52:13;;;;;;;33.78;25.60;;;21.80;99.90;;;;;;4998035;28;20398;-84
2023/09/12 11:54:43;;;;;;;31.27;25.73;;;21.80;99.90;;;;;;4981809;28;20038;-84
2023/09/12 11:57:10;;;;;;;31.25;24.80;;;21.80;99.90;;;;;;5016027;28;20269;-83
2023/09/12 11:59:40;;;;;;;31.65;24.45;;;21.80;99.90;;;;;;4998227;28;20048;-84
2023/09/12 12:02:08;;;;;;;31.90;24.70;;;21.90;99.90;;;;;;4981686;28;20038;-84
2023/09/12 12:04:34;;;;;;;33.08;24.95;;;22.00;99.90;;;;;;5015336;28;20490;-83
2023/09/12 12:07:01;;;;;;;32.47;21.95;;;22.10;99.90;;;;;;4997860;28;20042;-83
2023/09/12 12:09:27;;;;;;;26.92;20.83;;;22.20;99.90;;;;;;4997761;28;20041;-83
2023/09/12 12:11:53;;;;;;;25.90;20.02;;;22.30;99.90;;;;;;4997690;28;20521;-83
2023/09/12 12:14:19;;;;;;;25.88;20.10;;;22.50;99.90;;;;;;5015329;28;20045;-83
2023/09/12 12:16:46;;;;;;;28.17;21.25;;;22.50;99.90;;;;;;4997726;28;20042;-83
2023/09/12 12:19:14;;;;;;;25.45;19.73;;;22.60;99.90;;;;;;4997595;28;20042;-83
2023/09/12 12:21:40;;;;;;;25.48;19.52;;;22.60;99.90;;;;;;4997655;28;20046;-83
2023/09/12 12:24:09;;;;;;;20.75;17.23;;;22.50;99.90;;;;;;4997416;28;20046;-83
2023/09/12 12:26:35;;;;;;;22.88;17.50;;;22.50;99.90;;;;;;4997779;28;20077;-83
2023/09/12 12:29:01;;;;;;;22.23;17.95;;;22.50;99.90;;;;;;5015111;28;20041;-83